sensor_id;sensor_type;location;lat;lon;timestamp;temperature;humidity
5134;DHT22;2585;48.696;10.066;2023-02-28T00:00:50;-2.80;1.00
5134;DHT22;2585;48.696;10.066;2023-02-28T00:03:17;-2.80;1.00
5134;DHT22;2585;48.696;10.066;2023-02-28T00:05:43;-2.80;1.00
5134;DHT22;2585;48.696;10.066;2023-02-28T00:08:10;-2.80;1.00
5134;DHT22;2585;48.696;10.066;2023-02-28T00:10:38;-2.80;1.00
5134;DHT22;2585;48.696;10.066;2023-02-28T00:13:06;-2.80;1.00
5134;DHT22;2585;48.696;10.066;2023-02-28T00:15:33;-2.80;1.00
5134;DHT22;2585;48.696;10.066;2023-02-28T00:18:01;-2.90;1.00
5134;DHT22;2585;48.696;10.066;2023-02-28T00:20:28;-2.90;1.00
5134;DHT22;2585;48.696;10.066;2023-02-28T00:22:54;-2.80;1.00
5134;DHT22;2585;48.696;10.066;2023-02-28T00:25:23;-2.90;1.00
5134;DHT22;2585;48.696;10.066;2023-02-28T00:27:51;-2.90;1.00
5134;DHT22;2585;48.696;10.066;2023-02-28T00:30:20;-2.90;1.00
5134;DHT22;2585;48.696;10.066;2023-02-28T00:32:47;-2.90;1.00
5134;DHT22;2585;48.696;10.066;2023-02-28T00:35:15;-2.90;1.00
5134;DHT22;2585;48.696;10.066;2023-02-28T00:37:42;-2.90;1.00
5134;DHT22;2585;48.696;10.066;2023-02-28T00:40:09;-2.90;1.00
5134;DHT22;2585;48.696;10.066;2023-02-28T00:42:38;-2.90;1.00
5134;DHT22;2585;48.696;10.066;2023-02-28T00:45:05;-2.90;1.00
5134;DHT22;2585;48.696;10.066;2023-02-28T00:47:32;-2.90;1.00
5134;DHT22;2585;48.696;10.066;2023-02-28T00:50:00;-3.00;1.00
5134;DHT22;2585;48.696;10.066;2023-02-28T00:52:26;-3.00;1.00
5134;DHT22;2585;48.696;10.066;2023-02-28T00:54:53;-3.00;1.00
5134;DHT22;2585;48.696;10.066;2023-02-28T00:57:20;-3.00;1.00
5134;DHT22;2585;48.696;10.066;2023-02-28T00:59:47;-3.00;1.00
5134;DHT22;2585;48.696;10.066;2023-02-28T01:02:14;-3.00;1.00
5134;DHT22;2585;48.696;10.066;2023-02-28T01:04:41;-3.00;1.00
5134;DHT22;2585;48.696;10.066;2023-02-28T01:07:08;-3.00;1.00
5134;DHT22;2585;48.696;10.066;2023-02-28T01:09:35;-3.10;1.00
5134;DHT22;2585;48.696;10.066;2023-02-28T01:12:02;-3.10;1.00
5134;DHT22;2585;48.696;10.066;2023-02-28T01:14:28;-3.10;1.00
5134;DHT22;2585;48.696;10.066;2023-02-28T01:16:55;-3.10;1.00
5134;DHT22;2585;48.696;10.066;2023-02-28T01:19:22;-3.10;1.00
5134;DHT22;2585;48.696;10.066;2023-02-28T01:21:49;-3.10;1.00
5134;DHT22;2585;48.696;10.066;2023-02-28T01:24:15;-3.10;1.00
5134;DHT22;2585;48.696;10.066;2023-02-28T01:26:42;-3.10;1.00
5134;DHT22;2585;48.696;10.066;2023-02-28T01:29:09;-3.10;1.00
5134;DHT22;2585;48.696;10.066;2023-02-28T01:31:36;-3.10;1.00
5134;DHT22;2585;48.696;10.066;2023-02-28T01:34:03;-3.10;1.00
5134;DHT22;2585;48.696;10.066;2023-02-28T01:36:30;-3.10;1.00
5134;DHT22;2585;48.696;10.066;2023-02-28T01:38:57;-3.20;1.00
5134;DHT22;2585;48.696;10.066;2023-02-28T01:41:30;-3.10;1.00
5134;DHT22;2585;48.696;10.066;2023-02-28T01:46:35;-3.20;1.00
5134;DHT22;2585;48.696;10.066;2023-02-28T01:49:12;-3.20;1.00
5134;DHT22;2585;48.696;10.066;2023-02-28T01:51:50;-3.20;1.00
5134;DHT22;2585;48.696;10.066;2023-02-28T01:54:29;-3.20;1.00
5134;DHT22;2585;48.696;10.066;2023-02-28T01:57:09;-3.20;1.00
5134;DHT22;2585;48.696;10.066;2023-02-28T01:59:40;-3.20;1.00
5134;DHT22;2585;48.696;10.066;2023-02-28T02:02:13;-3.20;1.00
5134;DHT22;2585;48.696;10.066;2023-02-28T02:04:51;-3.20;1.00
5134;DHT22;2585;48.696;10.066;2023-02-28T02:07:20;-3.20;1.00
5134;DHT22;2585;48.696;10.066;2023-02-28T02:09:47;-3.20;1.00
5134;DHT22;2585;48.696;10.066;2023-02-28T02:15:13;-3.20;1.00
5134;DHT22;2585;48.696;10.066;2023-02-28T02:17:46;-3.20;1.00
5134;DHT22;2585;48.696;10.066;2023-02-28T02:35:16;-3.30;1.00
5134;DHT22;2585;48.696;10.066;2023-02-28T02:40:23;-3.30;1.00
5134;DHT22;2585;48.696;10.066;2023-02-28T02:43:23;-3.30;1.00
5134;DHT22;2585;48.696;10.066;2023-02-28T02:46:23;-3.30;1.00
5134;DHT22;2585;48.696;10.066;2023-02-28T02:48:55;-3.30;1.00
5134;DHT22;2585;48.696;10.066;2023-02-28T02:51:24;-3.20;1.00
5134;DHT22;2585;48.696;10.066;2023-02-28T02:53:57;-3.20;1.30
5134;DHT22;2585;48.696;10.066;2023-02-28T02:56:28;-3.20;2.40
5134;DHT22;2585;48.696;10.066;2023-02-28T02:59:06;-3.30;1.20
5134;DHT22;2585;48.696;10.066;2023-02-28T03:01:35;-3.30;2.20
5134;DHT22;2585;48.696;10.066;2023-02-28T03:04:06;-3.30;1.20
5134;DHT22;2585;48.696;10.066;2023-02-28T03:06:33;-3.30;1.10
5134;DHT22;2585;48.696;10.066;2023-02-28T03:09:02;-3.30;1.90
5134;DHT22;2585;48.696;10.066;2023-02-28T03:11:29;-3.30;2.20
5134;DHT22;2585;48.696;10.066;2023-02-28T03:16:48;-3.30;1.40
5134;DHT22;2585;48.696;10.066;2023-02-28T03:22:35;-3.30;2.50
5134;DHT22;2585;48.696;10.066;2023-02-28T03:25:32;-3.20;1.20
5134;DHT22;2585;48.696;10.066;2023-02-28T03:28:15;-3.20;1.20
5134;DHT22;2585;48.696;10.066;2023-02-28T03:30:47;-3.20;1.00
5134;DHT22;2585;48.696;10.066;2023-02-28T03:33:39;-3.20;1.00
5134;DHT22;2585;48.696;10.066;2023-02-28T03:36:12;-3.20;1.00
5134;DHT22;2585;48.696;10.066;2023-02-28T03:41:20;-3.20;1.00
5134;DHT22;2585;48.696;10.066;2023-02-28T03:43:54;-3.20;1.00
5134;DHT22;2585;48.696;10.066;2023-02-28T03:46:24;-3.20;1.00
5134;DHT22;2585;48.696;10.066;2023-02-28T03:49:30;-3.20;1.00
5134;DHT22;2585;48.696;10.066;2023-02-28T03:51:59;-3.20;1.00
5134;DHT22;2585;48.696;10.066;2023-02-28T03:54:38;-3.20;1.00
5134;DHT22;2585;48.696;10.066;2023-02-28T03:57:12;-3.30;1.00
5134;DHT22;2585;48.696;10.066;2023-02-28T03:59:47;-3.30;1.00
5134;DHT22;2585;48.696;10.066;2023-02-28T04:02:17;-3.30;1.00
5134;DHT22;2585;48.696;10.066;2023-02-28T04:04:45;-3.30;1.00
5134;DHT22;2585;48.696;10.066;2023-02-28T04:07:15;-3.30;1.00
5134;DHT22;2585;48.696;10.066;2023-02-28T04:09:42;-3.30;1.00
5134;DHT22;2585;48.696;10.066;2023-02-28T04:12:09;-3.30;1.00
5134;DHT22;2585;48.696;10.066;2023-02-28T04:14:36;-3.30;1.00
5134;DHT22;2585;48.696;10.066;2023-02-28T04:17:03;-3.30;1.00
5134;DHT22;2585;48.696;10.066;2023-02-28T04:19:30;-3.30;1.00
5134;DHT22;2585;48.696;10.066;2023-02-28T04:21:56;-3.30;1.00
5134;DHT22;2585;48.696;10.066;2023-02-28T04:24:26;-3.20;1.00
5134;DHT22;2585;48.696;10.066;2023-02-28T04:26:55;-3.30;1.00
5134;DHT22;2585;48.696;10.066;2023-02-28T04:29:27;-3.30;1.00
5134;DHT22;2585;48.696;10.066;2023-02-28T04:31:55;-3.30;1.00
5134;DHT22;2585;48.696;10.066;2023-02-28T04:34:29;-3.30;1.00
5134;DHT22;2585;48.696;10.066;2023-02-28T04:36:56;-3.40;1.00
5134;DHT22;2585;48.696;10.066;2023-02-28T04:39:38;-3.40;1.00
5134;DHT22;2585;48.696;10.066;2023-02-28T04:42:05;-3.40;1.00
5134;DHT22;2585;48.696;10.066;2023-02-28T04:44:32;-3.40;1.00
5134;DHT22;2585;48.696;10.066;2023-02-28T04:46:59;-3.40;1.00
5134;DHT22;2585;48.696;10.066;2023-02-28T04:49:26;-3.30;1.00
5134;DHT22;2585;48.696;10.066;2023-02-28T04:51:53;-3.40;1.00
5134;DHT22;2585;48.696;10.066;2023-02-28T04:54:20;-3.30;1.00
5134;DHT22;2585;48.696;10.066;2023-02-28T04:56:46;-3.30;1.00
5134;DHT22;2585;48.696;10.066;2023-02-28T04:59:16;-3.40;1.00
5134;DHT22;2585;48.696;10.066;2023-02-28T05:01:47;-3.40;1.00
5134;DHT22;2585;48.696;10.066;2023-02-28T05:04:14;-3.30;1.00
5134;DHT22;2585;48.696;10.066;2023-02-28T05:06:42;-3.40;1.00
5134;DHT22;2585;48.696;10.066;2023-02-28T05:09:09;-3.30;1.00
5134;DHT22;2585;48.696;10.066;2023-02-28T05:11:39;-3.30;1.00
5134;DHT22;2585;48.696;10.066;2023-02-28T05:14:15;-3.30;1.00
5134;DHT22;2585;48.696;10.066;2023-02-28T05:16:42;-3.30;1.00
5134;DHT22;2585;48.696;10.066;2023-02-28T05:19:09;-3.30;1.00
5134;DHT22;2585;48.696;10.066;2023-02-28T05:21:51;-3.40;1.00
5134;DHT22;2585;48.696;10.066;2023-02-28T05:24:18;-3.30;1.00
5134;DHT22;2585;48.696;10.066;2023-02-28T05:26:52;-3.30;1.00
5134;DHT22;2585;48.696;10.066;2023-02-28T05:29:20;-3.30;1.00
5134;DHT22;2585;48.696;10.066;2023-02-28T05:31:47;-3.30;1.00
5134;DHT22;2585;48.696;10.066;2023-02-28T05:34:14;-3.30;1.00
5134;DHT22;2585;48.696;10.066;2023-02-28T05:36:43;-3.30;1.00
5134;DHT22;2585;48.696;10.066;2023-02-28T05:39:10;-3.30;1.00
5134;DHT22;2585;48.696;10.066;2023-02-28T05:41:41;-3.30;1.00
5134;DHT22;2585;48.696;10.066;2023-02-28T05:44:08;-3.30;1.00
5134;DHT22;2585;48.696;10.066;2023-02-28T05:46:35;-3.30;1.00
5134;DHT22;2585;48.696;10.066;2023-02-28T05:49:02;-3.30;1.00
5134;DHT22;2585;48.696;10.066;2023-02-28T05:51:29;-3.20;1.00
5134;DHT22;2585;48.696;10.066;2023-02-28T05:53:59;-3.20;1.00
5134;DHT22;2585;48.696;10.066;2023-02-28T05:56:26;-3.20;1.00
5134;DHT22;2585;48.696;10.066;2023-02-28T05:58:53;-3.20;1.00
5134;DHT22;2585;48.696;10.066;2023-02-28T06:01:43;-3.20;1.00
5134;DHT22;2585;48.696;10.066;2023-02-28T06:04:17;-3.20;1.00
5134;DHT22;2585;48.696;10.066;2023-02-28T06:06:57;-3.30;1.00
5134;DHT22;2585;48.696;10.066;2023-02-28T06:09:24;-3.20;1.00
5134;DHT22;2585;48.696;10.066;2023-02-28T06:11:51;-3.30;1.00
5134;DHT22;2585;48.696;10.066;2023-02-28T06:14:19;-3.30;1.00
5134;DHT22;2585;48.696;10.066;2023-02-28T06:16:47;-3.20;1.00
5134;DHT22;2585;48.696;10.066;2023-02-28T06:19:14;-3.20;1.00
5134;DHT22;2585;48.696;10.066;2023-02-28T06:21:42;-3.10;1.00
5134;DHT22;2585;48.696;10.066;2023-02-28T06:24:09;-3.20;1.00
5134;DHT22;2585;48.696;10.066;2023-02-28T06:26:36;-3.20;1.00
5134;DHT22;2585;48.696;10.066;2023-02-28T06:29:03;-3.20;1.00
5134;DHT22;2585;48.696;10.066;2023-02-28T06:31:30;-3.20;1.00
5134;DHT22;2585;48.696;10.066;2023-02-28T06:33:57;-3.20;1.00
5134;DHT22;2585;48.696;10.066;2023-02-28T06:36:24;-3.10;1.00
5134;DHT22;2585;48.696;10.066;2023-02-28T06:38:50;-3.20;1.00
5134;DHT22;2585;48.696;10.066;2023-02-28T06:41:25;-3.10;1.00
5134;DHT22;2585;48.696;10.066;2023-02-28T06:43:52;-3.10;1.00
5134;DHT22;2585;48.696;10.066;2023-02-28T06:46:19;-3.10;1.00
5134;DHT22;2585;48.696;10.066;2023-02-28T06:48:46;-3.10;1.00
5134;DHT22;2585;48.696;10.066;2023-02-28T06:51:19;-3.10;1.00
5134;DHT22;2585;48.696;10.066;2023-02-28T06:53:51;-3.00;1.00
5134;DHT22;2585;48.696;10.066;2023-02-28T06:56:18;-3.10;1.00
5134;DHT22;2585;48.696;10.066;2023-02-28T06:58:48;-3.10;1.00
5134;DHT22;2585;48.696;10.066;2023-02-28T07:01:15;-3.10;1.00
5134;DHT22;2585;48.696;10.066;2023-02-28T07:03:42;-3.10;1.00
5134;DHT22;2585;48.696;10.066;2023-02-28T07:06:09;-3.10;1.00
5134;DHT22;2585;48.696;10.066;2023-02-28T07:08:35;-3.00;1.00
5134;DHT22;2585;48.696;10.066;2023-02-28T07:11:03;-3.00;1.00
5134;DHT22;2585;48.696;10.066;2023-02-28T07:13:30;-3.00;1.00
5134;DHT22;2585;48.696;10.066;2023-02-28T07:15:59;-3.00;1.00
5134;DHT22;2585;48.696;10.066;2023-02-28T07:18:27;-2.90;1.00
5134;DHT22;2585;48.696;10.066;2023-02-28T07:20:54;-2.80;1.00
5134;DHT22;2585;48.696;10.066;2023-02-28T07:23:21;-2.80;1.00
5134;DHT22;2585;48.696;10.066;2023-02-28T07:25:50;-2.80;1.00
5134;DHT22;2585;48.696;10.066;2023-02-28T07:28:17;-2.70;1.00
5134;DHT22;2585;48.696;10.066;2023-02-28T07:30:43;-2.70;1.00
5134;DHT22;2585;48.696;10.066;2023-02-28T07:33:10;-2.60;1.00
5134;DHT22;2585;48.696;10.066;2023-02-28T07:35:37;-2.60;1.00
5134;DHT22;2585;48.696;10.066;2023-02-28T07:38:04;-2.60;1.00
5134;DHT22;2585;48.696;10.066;2023-02-28T07:40:31;-2.50;1.00
5134;DHT22;2585;48.696;10.066;2023-02-28T07:43:02;-2.50;1.00
5134;DHT22;2585;48.696;10.066;2023-02-28T07:45:30;-2.50;1.00
5134;DHT22;2585;48.696;10.066;2023-02-28T07:47:58;-2.40;1.00
5134;DHT22;2585;48.696;10.066;2023-02-28T07:50:24;-2.40;1.00
5134;DHT22;2585;48.696;10.066;2023-02-28T07:52:52;-2.40;1.00
5134;DHT22;2585;48.696;10.066;2023-02-28T07:55:19;-2.30;1.00
5134;DHT22;2585;48.696;10.066;2023-02-28T07:57:46;-2.30;1.00
5134;DHT22;2585;48.696;10.066;2023-02-28T08:00:13;-2.30;1.00
5134;DHT22;2585;48.696;10.066;2023-02-28T08:02:40;-2.30;1.00
5134;DHT22;2585;48.696;10.066;2023-02-28T08:05:07;-2.20;1.00
5134;DHT22;2585;48.696;10.066;2023-02-28T08:07:34;-2.20;1.00
5134;DHT22;2585;48.696;10.066;2023-02-28T08:10:01;-2.10;1.00
5134;DHT22;2585;48.696;10.066;2023-02-28T08:12:28;-2.00;1.00
5134;DHT22;2585;48.696;10.066;2023-02-28T08:14:55;-2.10;1.00
5134;DHT22;2585;48.696;10.066;2023-02-28T08:17:21;-2.00;1.00
5134;DHT22;2585;48.696;10.066;2023-02-28T08:19:49;-2.00;1.00
5134;DHT22;2585;48.696;10.066;2023-02-28T08:22:15;-1.90;1.00
5134;DHT22;2585;48.696;10.066;2023-02-28T08:24:43;-1.90;1.00
5134;DHT22;2585;48.696;10.066;2023-02-28T08:27:10;-1.80;1.00
5134;DHT22;2585;48.696;10.066;2023-02-28T08:29:38;-1.70;1.00
5134;DHT22;2585;48.696;10.066;2023-02-28T08:32:06;-1.60;1.00
5134;DHT22;2585;48.696;10.066;2023-02-28T08:34:46;-1.60;1.00
5134;DHT22;2585;48.696;10.066;2023-02-28T08:37:13;-1.50;1.00
5134;DHT22;2585;48.696;10.066;2023-02-28T08:39:40;-1.40;1.00
5134;DHT22;2585;48.696;10.066;2023-02-28T08:42:07;-1.40;1.00
5134;DHT22;2585;48.696;10.066;2023-02-28T08:44:34;-1.30;1.00
5134;DHT22;2585;48.696;10.066;2023-02-28T08:47:01;-1.30;1.00
5134;DHT22;2585;48.696;10.066;2023-02-28T08:49:27;-1.30;1.00
5134;DHT22;2585;48.696;10.066;2023-02-28T08:51:55;-1.20;1.00
5134;DHT22;2585;48.696;10.066;2023-02-28T08:54:24;-1.30;1.00
5134;DHT22;2585;48.696;10.066;2023-02-28T08:56:51;-1.20;1.00
5134;DHT22;2585;48.696;10.066;2023-02-28T08:59:18;-1.10;1.00
5134;DHT22;2585;48.696;10.066;2023-02-28T09:01:44;-1.10;1.00
5134;DHT22;2585;48.696;10.066;2023-02-28T09:04:11;-1.00;1.00
5134;DHT22;2585;48.696;10.066;2023-02-28T09:06:42;-0.90;1.00
5134;DHT22;2585;48.696;10.066;2023-02-28T09:09:11;-0.90;91.50
5134;DHT22;2585;48.696;10.066;2023-02-28T09:11:37;-0.80;91.50
5134;DHT22;2585;48.696;10.066;2023-02-28T09:14:04;-0.90;83.80
5134;DHT22;2585;48.696;10.066;2023-02-28T09:16:32;-1.00;78.20
5134;DHT22;2585;48.696;10.066;2023-02-28T09:19:00;-0.90;82.90
5134;DHT22;2585;48.696;10.066;2023-02-28T09:21:27;-0.90;80.10
5134;DHT22;2585;48.696;10.066;2023-02-28T09:23:55;-0.70;81.10
5134;DHT22;2585;48.696;10.066;2023-02-28T09:26:24;-0.70;82.00
5134;DHT22;2585;48.696;10.066;2023-02-28T09:28:52;-0.60;80.30
5134;DHT22;2585;48.696;10.066;2023-02-28T09:31:22;-0.60;73.10
5134;DHT22;2585;48.696;10.066;2023-02-28T09:33:50;-0.50;74.60
5134;DHT22;2585;48.696;10.066;2023-02-28T09:36:18;-0.40;71.20
5134;DHT22;2585;48.696;10.066;2023-02-28T09:38:45;-0.30;66.10
5134;DHT22;2585;48.696;10.066;2023-02-28T09:41:19;-0.20;47.10
5134;DHT22;2585;48.696;10.066;2023-02-28T09:43:50;-0.10;36.30
5134;DHT22;2585;48.696;10.066;2023-02-28T09:49:02;0.00;3.10
5134;DHT22;2585;48.696;10.066;2023-02-28T09:54:16;0.10;1.00
5134;DHT22;2585;48.696;10.066;2023-02-28T09:56:50;0.30;1.00
5134;DHT22;2585;48.696;10.066;2023-02-28T09:59:58;0.40;1.00
5134;DHT22;2585;48.696;10.066;2023-02-28T10:05:00;0.50;1.00
5134;DHT22;2585;48.696;10.066;2023-02-28T10:10:48;0.40;1.00
5134;DHT22;2585;48.696;10.066;2023-02-28T10:14:10;0.40;1.00
5134;DHT22;2585;48.696;10.066;2023-02-28T10:16:24;0.70;1.00
5134;DHT22;2585;48.696;10.066;2023-02-28T10:18:56;1.70;1.00
5134;DHT22;2585;48.696;10.066;2023-02-28T10:21:28;2.10;1.00
5134;DHT22;2585;48.696;10.066;2023-02-28T10:24:03;1.70;92.10
5134;DHT22;2585;48.696;10.066;2023-02-28T10:26:32;1.80;93.20
5134;DHT22;2585;48.696;10.066;2023-02-28T10:28:59;2.50;94.20
5134;DHT22;2585;48.696;10.066;2023-02-28T10:31:26;3.00;90.60
5134;DHT22;2585;48.696;10.066;2023-02-28T10:33:53;3.50;85.00
5134;DHT22;2585;48.696;10.066;2023-02-28T10:36:21;3.60;81.00
5134;DHT22;2585;48.696;10.066;2023-02-28T10:38:48;3.90;73.20
5134;DHT22;2585;48.696;10.066;2023-02-28T10:41:31;3.50;68.10
5134;DHT22;2585;48.696;10.066;2023-02-28T10:44:20;3.20;61.00
5134;DHT22;2585;48.696;10.066;2023-02-28T10:46:48;3.70;70.00
5134;DHT22;2585;48.696;10.066;2023-02-28T10:49:28;4.30;67.40
5134;DHT22;2585;48.696;10.066;2023-02-28T10:51:58;4.50;66.10
5134;DHT22;2585;48.696;10.066;2023-02-28T10:54:32;4.80;58.10
5134;DHT22;2585;48.696;10.066;2023-02-28T10:59:43;4.90;45.90
5134;DHT22;2585;48.696;10.066;2023-02-28T11:02:32;5.20;22.30
5134;DHT22;2585;48.696;10.066;2023-02-28T11:05:27;5.30;11.80
5134;DHT22;2585;48.696;10.066;2023-02-28T11:07:57;5.40;8.40
5134;DHT22;2585;48.696;10.066;2023-02-28T11:10:29;5.30;4.40
5134;DHT22;2585;48.696;10.066;2023-02-28T11:12:57;4.70;1.00
5134;DHT22;2585;48.696;10.066;2023-02-28T11:15:32;5.50;7.90
5134;DHT22;2585;48.696;10.066;2023-02-28T11:18:17;5.60;5.60
5134;DHT22;2585;48.696;10.066;2023-02-28T11:20:52;5.50;1.00
5134;DHT22;2585;48.696;10.066;2023-02-28T11:23:21;6.10;1.00
5134;DHT22;2585;48.696;10.066;2023-02-28T11:25:52;6.70;1.00
5134;DHT22;2585;48.696;10.066;2023-02-28T11:28:27;7.00;1.00
5134;DHT22;2585;48.696;10.066;2023-02-28T11:33:47;6.80;1.00
5134;DHT22;2585;48.696;10.066;2023-02-28T11:38:47;6.00;1.00
5134;DHT22;2585;48.696;10.066;2023-02-28T11:41:46;6.50;1.00
5134;DHT22;2585;48.696;10.066;2023-02-28T11:46:51;6.70;1.00
5134;DHT22;2585;48.696;10.066;2023-02-28T11:49:31;7.40;1.00
5134;DHT22;2585;48.696;10.066;2023-02-28T11:52:21;7.50;1.00
5134;DHT22;2585;48.696;10.066;2023-02-28T11:55:17;7.70;1.00
5134;DHT22;2585;48.696;10.066;2023-02-28T12:03:17;7.60;1.00
5134;DHT22;2585;48.696;10.066;2023-02-28T12:06:12;7.10;1.00
5134;DHT22;2585;48.696;10.066;2023-02-28T12:08:58;7.10;1.00
5134;DHT22;2585;48.696;10.066;2023-02-28T12:17:46;7.40;1.00
5134;DHT22;2585;48.696;10.066;2023-02-28T12:23:21;7.10;1.00
5134;DHT22;2585;48.696;10.066;2023-02-28T12:26:07;7.20;1.00
5134;DHT22;2585;48.696;10.066;2023-02-28T12:28:46;6.80;1.00
5134;DHT22;2585;48.696;10.066;2023-02-28T12:31:24;7.20;1.00
5134;DHT22;2585;48.696;10.066;2023-02-28T12:33:55;7.10;1.00
5134;DHT22;2585;48.696;10.066;2023-02-28T12:36:23;6.80;1.00
5134;DHT22;2585;48.696;10.066;2023-02-28T12:39:08;6.90;1.00
5134;DHT22;2585;48.696;10.066;2023-02-28T12:41:45;7.20;1.00
5134;DHT22;2585;48.696;10.066;2023-02-28T12:44:47;7.30;1.00
5134;DHT22;2585;48.696;10.066;2023-02-28T12:47:17;7.00;1.00
5134;DHT22;2585;48.696;10.066;2023-02-28T12:49:57;7.70;1.00
5134;DHT22;2585;48.696;10.066;2023-02-28T12:55:27;7.10;1.00
5134;DHT22;2585;48.696;10.066;2023-02-28T13:01:13;7.60;1.00
5134;DHT22;2585;48.696;10.066;2023-02-28T13:06:53;7.60;1.00
5134;DHT22;2585;48.696;10.066;2023-02-28T13:09:22;7.70;1.00
5134;DHT22;2585;48.696;10.066;2023-02-28T13:11:50;8.00;1.00
5134;DHT22;2585;48.696;10.066;2023-02-28T13:14:22;8.40;1.00
5134;DHT22;2585;48.696;10.066;2023-02-28T13:16:57;8.50;1.00
5134;DHT22;2585;48.696;10.066;2023-02-28T13:19:33;7.80;1.00
5134;DHT22;2585;48.696;10.066;2023-02-28T13:22:01;7.90;1.00
5134;DHT22;2585;48.696;10.066;2023-02-28T13:29:32;7.20;1.00
5134;DHT22;2585;48.696;10.066;2023-02-28T13:34:47;7.40;1.00
5134;DHT22;2585;48.696;10.066;2023-02-28T13:37:36;7.20;1.00
5134;DHT22;2585;48.696;10.066;2023-02-28T13:47:45;7.30;1.00
5134;DHT22;2585;48.696;10.066;2023-02-28T13:50:34;7.40;1.00
5134;DHT22;2585;48.696;10.066;2023-02-28T13:58:41;6.90;1.00
5134;DHT22;2585;48.696;10.066;2023-02-28T14:06:32;6.50;1.00
5134;DHT22;2585;48.696;10.066;2023-02-28T14:09:03;6.40;1.00
5134;DHT22;2585;48.696;10.066;2023-02-28T14:11:37;6.10;1.00
5134;DHT22;2585;48.696;10.066;2023-02-28T14:14:05;6.20;1.00
5134;DHT22;2585;48.696;10.066;2023-02-28T14:16:47;6.20;1.00
5134;DHT22;2585;48.696;10.066;2023-02-28T14:19:30;6.40;1.00
5134;DHT22;2585;48.696;10.066;2023-02-28T14:33:27;5.80;1.00
5134;DHT22;2585;48.696;10.066;2023-02-28T14:36:18;5.40;1.00
5134;DHT22;2585;48.696;10.066;2023-02-28T14:38:54;5.40;1.00
5134;DHT22;2585;48.696;10.066;2023-02-28T14:41:36;5.30;1.00
5134;DHT22;2585;48.696;10.066;2023-02-28T14:44:31;5.30;1.00
5134;DHT22;2585;48.696;10.066;2023-02-28T14:47:00;5.20;1.00
5134;DHT22;2585;48.696;10.066;2023-02-28T14:49:44;5.20;1.00
5134;DHT22;2585;48.696;10.066;2023-02-28T14:54:39;5.10;1.00
5134;DHT22;2585;48.696;10.066;2023-02-28T14:57:11;4.80;1.00
5134;DHT22;2585;48.696;10.066;2023-02-28T14:59:46;4.70;1.00
5134;DHT22;2585;48.696;10.066;2023-02-28T15:02:22;4.40;1.00
5134;DHT22;2585;48.696;10.066;2023-02-28T15:04:58;4.50;1.00
5134;DHT22;2585;48.696;10.066;2023-02-28T15:07:25;4.40;1.00
5134;DHT22;2585;48.696;10.066;2023-02-28T15:12:52;4.30;1.00
5134;DHT22;2585;48.696;10.066;2023-02-28T15:15:20;4.30;1.00
5134;DHT22;2585;48.696;10.066;2023-02-28T15:18:03;4.30;1.00
5134;DHT22;2585;48.696;10.066;2023-02-28T15:20:32;4.10;1.00
5134;DHT22;2585;48.696;10.066;2023-02-28T15:22:59;3.90;1.00
5134;DHT22;2585;48.696;10.066;2023-02-28T15:25:27;3.90;1.00
5134;DHT22;2585;48.696;10.066;2023-02-28T15:27:55;3.70;1.00
5134;DHT22;2585;48.696;10.066;2023-02-28T15:30:29;3.70;1.00
5134;DHT22;2585;48.696;10.066;2023-02-28T15:35:38;3.50;1.00
5134;DHT22;2585;48.696;10.066;2023-02-28T15:38:33;3.50;1.00
5134;DHT22;2585;48.696;10.066;2023-02-28T15:41:00;3.50;1.00
5134;DHT22;2585;48.696;10.066;2023-02-28T15:43:32;3.50;1.00
5134;DHT22;2585;48.696;10.066;2023-02-28T15:46:03;3.40;1.00
5134;DHT22;2585;48.696;10.066;2023-02-28T15:48:33;3.40;1.00
5134;DHT22;2585;48.696;10.066;2023-02-28T15:51:36;3.30;1.00
5134;DHT22;2585;48.696;10.066;2023-02-28T15:54:08;3.30;1.00
5134;DHT22;2585;48.696;10.066;2023-02-28T15:56:43;3.10;1.00
5134;DHT22;2585;48.696;10.066;2023-02-28T15:59:20;3.00;1.00
5134;DHT22;2585;48.696;10.066;2023-02-28T16:07:34;2.70;1.00
5134;DHT22;2585;48.696;10.066;2023-02-28T16:10:01;2.60;1.00
5134;DHT22;2585;48.696;10.066;2023-02-28T16:12:30;2.50;1.00
5134;DHT22;2585;48.696;10.066;2023-02-28T16:15:00;2.50;1.00
5134;DHT22;2585;48.696;10.066;2023-02-28T16:17:33;2.50;1.00
5134;DHT22;2585;48.696;10.066;2023-02-28T16:20:00;2.50;1.00
5134;DHT22;2585;48.696;10.066;2023-02-28T16:22:27;2.40;1.00
5134;DHT22;2585;48.696;10.066;2023-02-28T16:24:54;2.30;1.00
5134;DHT22;2585;48.696;10.066;2023-02-28T16:27:41;2.20;1.00
5134;DHT22;2585;48.696;10.066;2023-02-28T16:30:24;2.20;1.00
5134;DHT22;2585;48.696;10.066;2023-02-28T16:32:53;2.10;1.00
5134;DHT22;2585;48.696;10.066;2023-02-28T16:35:21;2.00;1.00
5134;DHT22;2585;48.696;10.066;2023-02-28T16:37:50;1.90;1.00
5134;DHT22;2585;48.696;10.066;2023-02-28T16:40:19;1.90;1.00
5134;DHT22;2585;48.696;10.066;2023-02-28T16:42:49;1.80;1.00
5134;DHT22;2585;48.696;10.066;2023-02-28T16:45:22;1.70;1.00
5134;DHT22;2585;48.696;10.066;2023-02-28T16:47:49;1.70;1.00
5134;DHT22;2585;48.696;10.066;2023-02-28T16:50:25;1.60;1.00
5134;DHT22;2585;48.696;10.066;2023-02-28T16:52:52;1.50;1.00
5134;DHT22;2585;48.696;10.066;2023-02-28T16:55:19;1.50;1.00
5134;DHT22;2585;48.696;10.066;2023-02-28T16:57:51;1.40;1.00
5134;DHT22;2585;48.696;10.066;2023-02-28T17:00:19;1.40;1.00
5134;DHT22;2585;48.696;10.066;2023-02-28T17:02:45;1.40;1.00
5134;DHT22;2585;48.696;10.066;2023-02-28T17:05:13;1.30;1.00
5134;DHT22;2585;48.696;10.066;2023-02-28T17:07:42;1.20;1.00
5134;DHT22;2585;48.696;10.066;2023-02-28T17:10:15;1.20;1.00
5134;DHT22;2585;48.696;10.066;2023-02-28T17:12:43;1.10;1.00
5134;DHT22;2585;48.696;10.066;2023-02-28T17:15:11;1.00;1.00
5134;DHT22;2585;48.696;10.066;2023-02-28T17:17:39;0.90;1.00
5134;DHT22;2585;48.696;10.066;2023-02-28T17:20:09;0.90;1.00
5134;DHT22;2585;48.696;10.066;2023-02-28T17:22:37;0.80;1.00
5134;DHT22;2585;48.696;10.066;2023-02-28T17:25:05;0.80;1.00
5134;DHT22;2585;48.696;10.066;2023-02-28T17:27:32;0.80;1.00
5134;DHT22;2585;48.696;10.066;2023-02-28T17:29:59;0.70;1.00
5134;DHT22;2585;48.696;10.066;2023-02-28T17:32:27;0.60;1.00
5134;DHT22;2585;48.696;10.066;2023-02-28T17:34:54;0.60;1.00
5134;DHT22;2585;48.696;10.066;2023-02-28T17:37:20;0.60;1.00
5134;DHT22;2585;48.696;10.066;2023-02-28T17:39:47;0.50;1.00
5134;DHT22;2585;48.696;10.066;2023-02-28T17:42:14;0.50;1.00
5134;DHT22;2585;48.696;10.066;2023-02-28T17:44:41;0.40;1.00
5134;DHT22;2585;48.696;10.066;2023-02-28T17:47:10;0.40;1.00
5134;DHT22;2585;48.696;10.066;2023-02-28T17:49:38;0.40;1.00
5134;DHT22;2585;48.696;10.066;2023-02-28T17:52:05;0.40;1.00
5134;DHT22;2585;48.696;10.066;2023-02-28T17:54:31;0.40;1.00
5134;DHT22;2585;48.696;10.066;2023-02-28T17:56:58;0.30;1.00
5134;DHT22;2585;48.696;10.066;2023-02-28T17:59:25;0.30;1.00
5134;DHT22;2585;48.696;10.066;2023-02-28T18:02:00;0.20;1.00
5134;DHT22;2585;48.696;10.066;2023-02-28T18:04:27;0.10;1.00
5134;DHT22;2585;48.696;10.066;2023-02-28T18:06:54;0.20;1.00
5134;DHT22;2585;48.696;10.066;2023-02-28T18:09:22;0.10;1.00
5134;DHT22;2585;48.696;10.066;2023-02-28T18:11:50;0.10;1.00
5134;DHT22;2585;48.696;10.066;2023-02-28T18:14:19;0.10;1.00
5134;DHT22;2585;48.696;10.066;2023-02-28T18:16:46;0.10;1.00
5134;DHT22;2585;48.696;10.066;2023-02-28T18:19:13;0.10;1.00
5134;DHT22;2585;48.696;10.066;2023-02-28T18:21:45;0.10;1.00
5134;DHT22;2585;48.696;10.066;2023-02-28T18:24:13;0.00;1.00
5134;DHT22;2585;48.696;10.066;2023-02-28T18:26:41;0.00;1.00
5134;DHT22;2585;48.696;10.066;2023-02-28T18:29:08;0.00;1.00
5134;DHT22;2585;48.696;10.066;2023-02-28T18:31:41;0.00;1.00
5134;DHT22;2585;48.696;10.066;2023-02-28T18:34:08;-0.10;1.00
5134;DHT22;2585;48.696;10.066;2023-02-28T18:36:35;-0.10;1.00
5134;DHT22;2585;48.696;10.066;2023-02-28T18:39:01;-0.10;1.00
5134;DHT22;2585;48.696;10.066;2023-02-28T18:41:28;-0.10;1.00